sensor_id;sensor_type;location;lat;lon;timestamp;temperature;humidity
5960;DHT22;3006;50.956;7.002;2022-08-04T00:01:06;26.10;88.90
5960;DHT22;3006;50.956;7.002;2022-08-04T00:03:42;26.00;89.00
5960;DHT22;3006;50.956;7.002;2022-08-04T00:06:18;26.00;89.40
5960;DHT22;3006;50.956;7.002;2022-08-04T00:08:54;26.00;89.30
5960;DHT22;3006;50.956;7.002;2022-08-04T00:11:28;25.90;89.30
5960;DHT22;3006;50.956;7.002;2022-08-04T00:14:01;25.90;89.50
5960;DHT22;3006;50.956;7.002;2022-08-04T00:16:35;25.90;89.20
5960;DHT22;3006;50.956;7.002;2022-08-04T00:19:10;25.80;89.20
5960;DHT22;3006;50.956;7.002;2022-08-04T00:21:45;25.80;89.20
5960;DHT22;3006;50.956;7.002;2022-08-04T00:24:15;25.80;89.40
5960;DHT22;3006;50.956;7.002;2022-08-04T00:26:46;25.70;88.90
5960;DHT22;3006;50.956;7.002;2022-08-04T00:29:15;25.70;89.40
5960;DHT22;3006;50.956;7.002;2022-08-04T00:31:45;25.60;89.50
5960;DHT22;3006;50.956;7.002;2022-08-04T00:34:25;25.60;89.80
5960;DHT22;3006;50.956;7.002;2022-08-04T00:36:55;25.60;89.80
5960;DHT22;3006;50.956;7.002;2022-08-04T00:39:25;25.60;89.70
5960;DHT22;3006;50.956;7.002;2022-08-04T00:42:15;25.60;89.70
5960;DHT22;3006;50.956;7.002;2022-08-04T00:45:02;25.60;89.60
5960;DHT22;3006;50.956;7.002;2022-08-04T00:47:48;25.70;89.80
5960;DHT22;3006;50.956;7.002;2022-08-04T00:50:25;25.70;90.00
5960;DHT22;3006;50.956;7.002;2022-08-04T00:53:06;25.70;90.00
5960;DHT22;3006;50.956;7.002;2022-08-04T00:56:07;25.60;90.00
5960;DHT22;3006;50.956;7.002;2022-08-04T00:58:45;25.60;90.20
5960;DHT22;3006;50.956;7.002;2022-08-04T01:01:26;25.50;90.30
5960;DHT22;3006;50.956;7.002;2022-08-04T01:04:03;25.50;90.30
5960;DHT22;3006;50.956;7.002;2022-08-04T01:06:44;25.40;90.30
5960;DHT22;3006;50.956;7.002;2022-08-04T01:09:36;25.40;90.30
5960;DHT22;3006;50.956;7.002;2022-08-04T01:15:05;25.30;90.40
5960;DHT22;3006;50.956;7.002;2022-08-04T01:17:42;25.20;90.70
5960;DHT22;3006;50.956;7.002;2022-08-04T01:20:20;25.20;90.90
5960;DHT22;3006;50.956;7.002;2022-08-04T01:29:27;25.30;90.50
5960;DHT22;3006;50.956;7.002;2022-08-04T01:32:19;25.30;90.20
5960;DHT22;3006;50.956;7.002;2022-08-04T01:34:58;25.30;90.10
5960;DHT22;3006;50.956;7.002;2022-08-04T01:37:44;25.30;90.20
5960;DHT22;3006;50.956;7.002;2022-08-04T01:40:16;25.30;90.30
5960;DHT22;3006;50.956;7.002;2022-08-04T01:42:51;25.20;90.30
5960;DHT22;3006;50.956;7.002;2022-08-04T01:45:24;25.20;90.40
5960;DHT22;3006;50.956;7.002;2022-08-04T01:47:56;25.20;90.40
5960;DHT22;3006;50.956;7.002;2022-08-04T01:50:26;25.20;90.50
5960;DHT22;3006;50.956;7.002;2022-08-04T01:53:01;25.20;90.50
5960;DHT22;3006;50.956;7.002;2022-08-04T01:55:34;25.20;90.50
5960;DHT22;3006;50.956;7.002;2022-08-04T01:58:23;25.10;90.50
5960;DHT22;3006;50.956;7.002;2022-08-04T02:00:58;25.20;90.50
5960;DHT22;3006;50.956;7.002;2022-08-04T02:03:36;25.10;90.60
5960;DHT22;3006;50.956;7.002;2022-08-04T02:06:30;25.00;90.70
5960;DHT22;3006;50.956;7.002;2022-08-04T02:09:06;25.00;90.80
5960;DHT22;3006;50.956;7.002;2022-08-04T02:11:40;24.80;91.00
5960;DHT22;3006;50.956;7.002;2022-08-04T02:14:19;24.80;91.20
5960;DHT22;3006;50.956;7.002;2022-08-04T02:17:10;24.70;91.30
5960;DHT22;3006;50.956;7.002;2022-08-04T02:20:03;24.70;91.30
5960;DHT22;3006;50.956;7.002;2022-08-04T02:22:39;24.60;91.50
5960;DHT22;3006;50.956;7.002;2022-08-04T02:25:10;24.70;91.50
5960;DHT22;3006;50.956;7.002;2022-08-04T02:27:59;24.70;91.50
5960;DHT22;3006;50.956;7.002;2022-08-04T02:30:39;24.70;91.50
5960;DHT22;3006;50.956;7.002;2022-08-04T02:33:12;24.70;91.60
5960;DHT22;3006;50.956;7.002;2022-08-04T02:35:45;24.60;91.70
5960;DHT22;3006;50.956;7.002;2022-08-04T02:38:23;24.60;91.90
5960;DHT22;3006;50.956;7.002;2022-08-04T02:40:55;24.50;92.00
5960;DHT22;3006;50.956;7.002;2022-08-04T02:43:30;24.50;92.10
5960;DHT22;3006;50.956;7.002;2022-08-04T02:46:20;24.40;92.10
5960;DHT22;3006;50.956;7.002;2022-08-04T02:48:54;24.50;92.20
5960;DHT22;3006;50.956;7.002;2022-08-04T02:51:28;24.50;92.20
5960;DHT22;3006;50.956;7.002;2022-08-04T02:53:59;24.50;92.30
5960;DHT22;3006;50.956;7.002;2022-08-04T02:56:30;24.50;92.40
5960;DHT22;3006;50.956;7.002;2022-08-04T02:59:02;24.40;92.50
5960;DHT22;3006;50.956;7.002;2022-08-04T03:01:35;24.40;92.50
5960;DHT22;3006;50.956;7.002;2022-08-04T03:04:42;24.50;92.60
5960;DHT22;3006;50.956;7.002;2022-08-04T03:10:56;24.50;93.00
5960;DHT22;3006;50.956;7.002;2022-08-04T03:20:08;24.40;92.60
5960;DHT22;3006;50.956;7.002;2022-08-04T03:23:15;24.30;92.70
5960;DHT22;3006;50.956;7.002;2022-08-04T03:26:12;24.30;92.90
5960;DHT22;3006;50.956;7.002;2022-08-04T03:29:42;24.20;92.80
5960;DHT22;3006;50.956;7.002;2022-08-04T03:36:05;24.10;93.00
5960;DHT22;3006;50.956;7.002;2022-08-04T03:42:15;24.10;92.90
5960;DHT22;3006;50.956;7.002;2022-08-04T03:48:25;24.10;92.80
5960;DHT22;3006;50.956;7.002;2022-08-04T03:51:26;24.10;92.80
5960;DHT22;3006;50.956;7.002;2022-08-04T04:00:17;24.00;92.90
5960;DHT22;3006;50.956;7.002;2022-08-04T04:15:50;23.70;93.50
5960;DHT22;3006;50.956;7.002;2022-08-04T04:18:46;23.60;93.60
5960;DHT22;3006;50.956;7.002;2022-08-04T04:21:28;23.60;93.70
5960;DHT22;3006;50.956;7.002;2022-08-04T04:24:07;23.60;93.70
5960;DHT22;3006;50.956;7.002;2022-08-04T04:26:51;23.70;93.60
5960;DHT22;3006;50.956;7.002;2022-08-04T04:32:40;23.60;93.70
5960;DHT22;3006;50.956;7.002;2022-08-04T04:35:21;23.50;93.90
5960;DHT22;3006;50.956;7.002;2022-08-04T04:38:02;23.50;94.00
5960;DHT22;3006;50.956;7.002;2022-08-04T04:40:46;23.50;93.80
5960;DHT22;3006;50.956;7.002;2022-08-04T04:43:33;23.60;93.90
5960;DHT22;3006;50.956;7.002;2022-08-04T04:46:26;23.60;93.80
5960;DHT22;3006;50.956;7.002;2022-08-04T04:49:07;23.60;93.90
5960;DHT22;3006;50.956;7.002;2022-08-04T04:51:42;23.60;93.80
5960;DHT22;3006;50.956;7.002;2022-08-04T04:54:22;23.70;93.80
5960;DHT22;3006;50.956;7.002;2022-08-04T04:56:59;23.70;93.80
5960;DHT22;3006;50.956;7.002;2022-08-04T04:59:33;23.70;93.70
5960;DHT22;3006;50.956;7.002;2022-08-04T05:05:23;23.70;93.60
5960;DHT22;3006;50.956;7.002;2022-08-04T05:11:45;23.80;93.40
5960;DHT22;3006;50.956;7.002;2022-08-04T05:14:26;23.80;93.30
5960;DHT22;3006;50.956;7.002;2022-08-04T05:17:14;23.90;93.20
5960;DHT22;3006;50.956;7.002;2022-08-04T05:19:52;23.90;93.10
5960;DHT22;3006;50.956;7.002;2022-08-04T05:22:28;23.90;93.00
5960;DHT22;3006;50.956;7.002;2022-08-04T05:25:03;24.00;92.90
5960;DHT22;3006;50.956;7.002;2022-08-04T05:27:39;24.00;92.90
5960;DHT22;3006;50.956;7.002;2022-08-04T05:30:09;24.00;93.00
5960;DHT22;3006;50.956;7.002;2022-08-04T05:32:44;24.00;92.80
5960;DHT22;3006;50.956;7.002;2022-08-04T05:35:20;24.10;92.90
5960;DHT22;3006;50.956;7.002;2022-08-04T05:38:16;24.10;92.60
5960;DHT22;3006;50.956;7.002;2022-08-04T05:40:46;24.20;92.50
5960;DHT22;3006;50.956;7.002;2022-08-04T05:43:16;24.20;92.20
5960;DHT22;3006;50.956;7.002;2022-08-04T05:45:46;24.30;92.10
5960;DHT22;3006;50.956;7.002;2022-08-04T05:48:16;24.30;92.10
5960;DHT22;3006;50.956;7.002;2022-08-04T05:50:47;24.40;92.00
5960;DHT22;3006;50.956;7.002;2022-08-04T05:53:19;24.40;91.80
5960;DHT22;3006;50.956;7.002;2022-08-04T05:55:50;24.40;91.70
5960;DHT22;3006;50.956;7.002;2022-08-04T05:58:28;24.50;91.70
5960;DHT22;3006;50.956;7.002;2022-08-04T06:00:58;24.50;91.60
5960;DHT22;3006;50.956;7.002;2022-08-04T06:03:28;24.60;91.30
5960;DHT22;3006;50.956;7.002;2022-08-04T06:05:59;24.70;91.30
5960;DHT22;3006;50.956;7.002;2022-08-04T06:08:30;24.80;91.20
5960;DHT22;3006;50.956;7.002;2022-08-04T06:11:04;24.80;91.20
5960;DHT22;3006;50.956;7.002;2022-08-04T06:13:39;24.90;90.80
5960;DHT22;3006;50.956;7.002;2022-08-04T06:16:18;25.00;90.50
5960;DHT22;3006;50.956;7.002;2022-08-04T06:18:59;25.10;90.50
5960;DHT22;3006;50.956;7.002;2022-08-04T06:21:50;25.10;90.60
5960;DHT22;3006;50.956;7.002;2022-08-04T06:24:24;25.20;90.20
5960;DHT22;3006;50.956;7.002;2022-08-04T06:26:54;25.30;90.10
5960;DHT22;3006;50.956;7.002;2022-08-04T06:29:24;25.40;90.10
5960;DHT22;3006;50.956;7.002;2022-08-04T06:31:59;25.50;89.70
5960;DHT22;3006;50.956;7.002;2022-08-04T06:35:02;25.50;89.60
5960;DHT22;3006;50.956;7.002;2022-08-04T06:37:32;25.50;89.60
5960;DHT22;3006;50.956;7.002;2022-08-04T06:40:13;25.50;89.40
5960;DHT22;3006;50.956;7.002;2022-08-04T06:42:59;25.60;88.90
5960;DHT22;3006;50.956;7.002;2022-08-04T06:45:29;25.60;88.20
5960;DHT22;3006;50.956;7.002;2022-08-04T06:48:02;25.60;88.40
5960;DHT22;3006;50.956;7.002;2022-08-04T06:50:35;25.60;88.20
5960;DHT22;3006;50.956;7.002;2022-08-04T06:53:28;25.60;88.20
5960;DHT22;3006;50.956;7.002;2022-08-04T06:56:00;25.70;87.50
5960;DHT22;3006;50.956;7.002;2022-08-04T06:58:42;25.70;87.60
5960;DHT22;3006;50.956;7.002;2022-08-04T07:01:12;25.80;87.60
5960;DHT22;3006;50.956;7.002;2022-08-04T07:03:42;25.90;87.90
5960;DHT22;3006;50.956;7.002;2022-08-04T07:06:17;25.90;87.10
5960;DHT22;3006;50.956;7.002;2022-08-04T07:08:50;25.90;87.00
5960;DHT22;3006;50.956;7.002;2022-08-04T07:11:22;26.00;87.10
5960;DHT22;3006;50.956;7.002;2022-08-04T07:13:55;26.00;87.20
5960;DHT22;3006;50.956;7.002;2022-08-04T07:16:27;26.10;86.80
5960;DHT22;3006;50.956;7.002;2022-08-04T07:18:57;26.10;86.90
5960;DHT22;3006;50.956;7.002;2022-08-04T07:21:36;26.20;87.00
5960;DHT22;3006;50.956;7.002;2022-08-04T07:24:06;26.30;86.60
5960;DHT22;3006;50.956;7.002;2022-08-04T07:26:36;26.30;86.50
5960;DHT22;3006;50.956;7.002;2022-08-04T07:29:06;26.40;86.20
5960;DHT22;3006;50.956;7.002;2022-08-04T07:31:35;26.40;86.50
5960;DHT22;3006;50.956;7.002;2022-08-04T07:34:04;26.50;86.60
5960;DHT22;3006;50.956;7.002;2022-08-04T07:36:49;26.60;86.40
5960;DHT22;3006;50.956;7.002;2022-08-04T07:39:22;26.60;86.00
5960;DHT22;3006;50.956;7.002;2022-08-04T07:41:58;26.70;85.80
5960;DHT22;3006;50.956;7.002;2022-08-04T07:44:28;26.70;86.20
5960;DHT22;3006;50.956;7.002;2022-08-04T07:46:58;26.70;86.10
5960;DHT22;3006;50.956;7.002;2022-08-04T07:49:27;26.80;86.00
5960;DHT22;3006;50.956;7.002;2022-08-04T07:52:18;26.90;85.90
5960;DHT22;3006;50.956;7.002;2022-08-04T07:54:53;27.00;85.70
5960;DHT22;3006;50.956;7.002;2022-08-04T07:57:31;27.00;85.90
5960;DHT22;3006;50.956;7.002;2022-08-04T08:00:10;27.20;85.70
5960;DHT22;3006;50.956;7.002;2022-08-04T08:02:44;27.20;85.40
5960;DHT22;3006;50.956;7.002;2022-08-04T08:05:17;27.30;85.30
5960;DHT22;3006;50.956;7.002;2022-08-04T08:07:48;27.30;85.10
5960;DHT22;3006;50.956;7.002;2022-08-04T08:10:21;27.40;84.90
5960;DHT22;3006;50.956;7.002;2022-08-04T08:12:54;27.40;85.00
5960;DHT22;3006;50.956;7.002;2022-08-04T08:15:26;27.50;84.90
5960;DHT22;3006;50.956;7.002;2022-08-04T08:17:55;27.50;84.90
5960;DHT22;3006;50.956;7.002;2022-08-04T08:20:28;27.60;84.20
5960;DHT22;3006;50.956;7.002;2022-08-04T08:22:58;27.70;83.90
5960;DHT22;3006;50.956;7.002;2022-08-04T08:25:29;27.90;82.90
5960;DHT22;3006;50.956;7.002;2022-08-04T08:28:01;28.00;82.20
5960;DHT22;3006;50.956;7.002;2022-08-04T08:30:33;28.10;81.70
5960;DHT22;3006;50.956;7.002;2022-08-04T08:33:06;28.20;82.00
5960;DHT22;3006;50.956;7.002;2022-08-04T08:35:46;28.30;81.70
5960;DHT22;3006;50.956;7.002;2022-08-04T08:38:37;28.40;81.70
5960;DHT22;3006;50.956;7.002;2022-08-04T08:45:01;28.50;80.90
5960;DHT22;3006;50.956;7.002;2022-08-04T08:47:50;28.60;81.00
5960;DHT22;3006;50.956;7.002;2022-08-04T08:50:51;28.70;81.00
5960;DHT22;3006;50.956;7.002;2022-08-04T08:53:38;28.70;80.40
5960;DHT22;3006;50.956;7.002;2022-08-04T08:56:20;28.80;80.50
5960;DHT22;3006;50.956;7.002;2022-08-04T09:05:52;28.90;80.10
5960;DHT22;3006;50.956;7.002;2022-08-04T09:11:17;29.10;79.30
5960;DHT22;3006;50.956;7.002;2022-08-04T09:13:53;29.20;78.90
5960;DHT22;3006;50.956;7.002;2022-08-04T09:16:33;29.40;77.50
5960;DHT22;3006;50.956;7.002;2022-08-04T09:19:11;29.50;77.80
5960;DHT22;3006;50.956;7.002;2022-08-04T09:22:10;29.70;77.40
5960;DHT22;3006;50.956;7.002;2022-08-04T09:24:49;29.90;77.20
5960;DHT22;3006;50.956;7.002;2022-08-04T09:27:23;29.90;76.90
5960;DHT22;3006;50.956;7.002;2022-08-04T09:30:00;30.00;76.50
5960;DHT22;3006;50.956;7.002;2022-08-04T09:32:38;30.10;76.60
5960;DHT22;3006;50.956;7.002;2022-08-04T09:35:32;30.20;76.40
5960;DHT22;3006;50.956;7.002;2022-08-04T09:38:09;30.10;76.00
5960;DHT22;3006;50.956;7.002;2022-08-04T09:40:47;30.00;75.40
5960;DHT22;3006;50.956;7.002;2022-08-04T09:43:31;30.10;75.10
5960;DHT22;3006;50.956;7.002;2022-08-04T09:46:28;30.20;75.50
5960;DHT22;3006;50.956;7.002;2022-08-04T09:49:01;30.40;74.70
5960;DHT22;3006;50.956;7.002;2022-08-04T09:51:47;30.50;74.20
5960;DHT22;3006;50.956;7.002;2022-08-04T09:54:36;30.50;74.50
5960;DHT22;3006;50.956;7.002;2022-08-04T09:57:14;30.70;73.00
5960;DHT22;3006;50.956;7.002;2022-08-04T09:59:52;30.80;73.60
5960;DHT22;3006;50.956;7.002;2022-08-04T10:02:23;30.80;72.90
5960;DHT22;3006;50.956;7.002;2022-08-04T10:04:56;30.90;72.80
5960;DHT22;3006;50.956;7.002;2022-08-04T10:07:42;31.00;71.80
5960;DHT22;3006;50.956;7.002;2022-08-04T10:10:41;31.20;70.10
5960;DHT22;3006;50.956;7.002;2022-08-04T10:13:22;31.30;69.70
5960;DHT22;3006;50.956;7.002;2022-08-04T10:16:07;31.30;70.00
5960;DHT22;3006;50.956;7.002;2022-08-04T10:18:47;31.40;69.80
5960;DHT22;3006;50.956;7.002;2022-08-04T10:21:24;31.60;69.90
5960;DHT22;3006;50.956;7.002;2022-08-04T10:24:10;31.60;69.20
5960;DHT22;3006;50.956;7.002;2022-08-04T10:26:47;31.60;69.50
5960;DHT22;3006;50.956;7.002;2022-08-04T10:29:26;31.60;68.20
5960;DHT22;3006;50.956;7.002;2022-08-04T10:31:59;31.50;68.20
5960;DHT22;3006;50.956;7.002;2022-08-04T10:34:39;31.40;68.70
5960;DHT22;3006;50.956;7.002;2022-08-04T10:37:17;31.30;69.20
5960;DHT22;3006;50.956;7.002;2022-08-04T10:40:13;31.40;69.10
5960;DHT22;3006;50.956;7.002;2022-08-04T10:43:08;31.40;68.70
5960;DHT22;3006;50.956;7.002;2022-08-04T10:45:51;31.40;68.40
5960;DHT22;3006;50.956;7.002;2022-08-04T10:48:32;31.40;68.20
5960;DHT22;3006;50.956;7.002;2022-08-04T10:51:14;31.40;67.60
5960;DHT22;3006;50.956;7.002;2022-08-04T10:53:54;31.50;67.70
5960;DHT22;3006;50.956;7.002;2022-08-04T10:56:31;31.50;68.30
5960;DHT22;3006;50.956;7.002;2022-08-04T10:59:07;31.60;68.40
5960;DHT22;3006;50.956;7.002;2022-08-04T11:01:39;31.50;68.20
5960;DHT22;3006;50.956;7.002;2022-08-04T11:04:36;31.60;67.60
5960;DHT22;3006;50.956;7.002;2022-08-04T11:07:10;31.80;66.80
5960;DHT22;3006;50.956;7.002;2022-08-04T11:09:40;31.90;65.60
5960;DHT22;3006;50.956;7.002;2022-08-04T11:12:15;32.00;64.50
5960;DHT22;3006;50.956;7.002;2022-08-04T11:14:50;32.20;64.40
5960;DHT22;3006;50.956;7.002;2022-08-04T11:17:25;32.40;64.40
5960;DHT22;3006;50.956;7.002;2022-08-04T11:20:01;32.50;65.60
5960;DHT22;3006;50.956;7.002;2022-08-04T11:22:57;32.50;64.40
5960;DHT22;3006;50.956;7.002;2022-08-04T11:25:31;32.70;64.40
5960;DHT22;3006;50.956;7.002;2022-08-04T11:28:08;32.80;65.80
5960;DHT22;3006;50.956;7.002;2022-08-04T11:30:43;32.60;66.30
5960;DHT22;3006;50.956;7.002;2022-08-04T11:33:20;32.60;67.00
5960;DHT22;3006;50.956;7.002;2022-08-04T11:35:56;32.50;67.20
5960;DHT22;3006;50.956;7.002;2022-08-04T11:38:34;32.50;67.90
5960;DHT22;3006;50.956;7.002;2022-08-04T11:41:08;32.40;67.70
5960;DHT22;3006;50.956;7.002;2022-08-04T11:43:43;32.30;68.10
5960;DHT22;3006;50.956;7.002;2022-08-04T11:46:37;32.30;69.10
5960;DHT22;3006;50.956;7.002;2022-08-04T11:49:10;32.30;68.70
5960;DHT22;3006;50.956;7.002;2022-08-04T11:51:43;32.30;69.10
5960;DHT22;3006;50.956;7.002;2022-08-04T11:54:13;32.30;69.30
5960;DHT22;3006;50.956;7.002;2022-08-04T11:56:42;32.10;69.40
5960;DHT22;3006;50.956;7.002;2022-08-04T11:59:14;32.10;70.10
5960;DHT22;3006;50.956;7.002;2022-08-04T12:02:06;31.90;70.20
5960;DHT22;3006;50.956;7.002;2022-08-04T12:04:55;31.80;70.50
5960;DHT22;3006;50.956;7.002;2022-08-04T12:07:38;31.70;70.00
5960;DHT22;3006;50.956;7.002;2022-08-04T12:10:21;31.60;70.20
5960;DHT22;3006;50.956;7.002;2022-08-04T12:13:17;31.60;70.30
5960;DHT22;3006;50.956;7.002;2022-08-04T12:15:55;31.60;70.50
5960;DHT22;3006;50.956;7.002;2022-08-04T12:18:32;31.50;70.40
5960;DHT22;3006;50.956;7.002;2022-08-04T12:21:06;31.50;70.50
5960;DHT22;3006;50.956;7.002;2022-08-04T12:23:42;31.50;70.70
5960;DHT22;3006;50.956;7.002;2022-08-04T12:26:16;31.50;71.20
5960;DHT22;3006;50.956;7.002;2022-08-04T12:28:50;31.40;70.90
5960;DHT22;3006;50.956;7.002;2022-08-04T12:31:44;31.50;71.10
5960;DHT22;3006;50.956;7.002;2022-08-04T12:34:38;31.40;71.20
5960;DHT22;3006;50.956;7.002;2022-08-04T12:37:16;31.40;71.60
5960;DHT22;3006;50.956;7.002;2022-08-04T12:39:52;31.40;71.70
5960;DHT22;3006;50.956;7.002;2022-08-04T12:42:47;31.30;71.30
5960;DHT22;3006;50.956;7.002;2022-08-04T12:45:26;31.20;71.50
5960;DHT22;3006;50.956;7.002;2022-08-04T12:47:58;31.20;71.90
5960;DHT22;3006;50.956;7.002;2022-08-04T12:50:28;31.20;72.30
5960;DHT22;3006;50.956;7.002;2022-08-04T12:52:57;31.20;72.80
5960;DHT22;3006;50.956;7.002;2022-08-04T12:55:32;31.20;73.60
5960;DHT22;3006;50.956;7.002;2022-08-04T12:58:09;31.20;73.90
5960;DHT22;3006;50.956;7.002;2022-08-04T13:00:43;31.20;74.20
5960;DHT22;3006;50.956;7.002;2022-08-04T13:03:16;31.20;74.50
5960;DHT22;3006;50.956;7.002;2022-08-04T13:05:46;31.20;74.30
5960;DHT22;3006;50.956;7.002;2022-08-04T13:08:19;31.30;74.00
5960;DHT22;3006;50.956;7.002;2022-08-04T13:10:52;31.20;73.30
5960;DHT22;3006;50.956;7.002;2022-08-04T13:13:26;31.20;73.00
5960;DHT22;3006;50.956;7.002;2022-08-04T13:15:58;31.20;72.60
5960;DHT22;3006;50.956;7.002;2022-08-04T13:18:30;31.30;71.40
5960;DHT22;3006;50.956;7.002;2022-08-04T13:21:10;31.30;71.20
5960;DHT22;3006;50.956;7.002;2022-08-04T13:23:48;31.40;71.20
5960;DHT22;3006;50.956;7.002;2022-08-04T13:26:47;31.80;70.50
5960;DHT22;3006;50.956;7.002;2022-08-04T13:29:23;32.10;69.50
5960;DHT22;3006;50.956;7.002;2022-08-04T13:32:15;32.20;69.60
5960;DHT22;3006;50.956;7.002;2022-08-04T13:34:47;32.10;69.90
5960;DHT22;3006;50.956;7.002;2022-08-04T13:37:21;32.00;70.20
5960;DHT22;3006;50.956;7.002;2022-08-04T13:39:53;31.90;70.50
5960;DHT22;3006;50.956;7.002;2022-08-04T13:42:24;32.00;70.00
5960;DHT22;3006;50.956;7.002;2022-08-04T13:44:56;32.00;69.50
5960;DHT22;3006;50.956;7.002;2022-08-04T13:47:28;32.00;69.30
5960;DHT22;3006;50.956;7.002;2022-08-04T13:50:12;32.00;69.60
5960;DHT22;3006;50.956;7.002;2022-08-04T13:52:43;32.10;69.80
5960;DHT22;3006;50.956;7.002;2022-08-04T13:55:20;32.30;69.40
5960;DHT22;3006;50.956;7.002;2022-08-04T13:57:54;32.40;69.40
5960;DHT22;3006;50.956;7.002;2022-08-04T14:00:24;32.40;69.60
5960;DHT22;3006;50.956;7.002;2022-08-04T14:03:02;32.60;70.30
5960;DHT22;3006;50.956;7.002;2022-08-04T14:06:15;32.70;69.90
5960;DHT22;3006;50.956;7.002;2022-08-04T14:08:49;32.80;70.10
5960;DHT22;3006;50.956;7.002;2022-08-04T14:11:20;32.80;70.60
5960;DHT22;3006;50.956;7.002;2022-08-04T14:14:14;32.60;70.20
5960;DHT22;3006;50.956;7.002;2022-08-04T14:16:59;32.40;70.50
5960;DHT22;3006;50.956;7.002;2022-08-04T14:19:47;32.40;70.40
5960;DHT22;3006;50.956;7.002;2022-08-04T14:22:36;32.30;70.00
5960;DHT22;3006;50.956;7.002;2022-08-04T14:25:07;32.30;70.80
5960;DHT22;3006;50.956;7.002;2022-08-04T14:27:44;32.30;71.30
5960;DHT22;3006;50.956;7.002;2022-08-04T14:30:21;32.40;71.50
5960;DHT22;3006;50.956;7.002;2022-08-04T14:32:56;32.50;71.40
5960;DHT22;3006;50.956;7.002;2022-08-04T14:35:55;32.80;71.30
5960;DHT22;3006;50.956;7.002;2022-08-04T14:38:41;32.80;71.50
5960;DHT22;3006;50.956;7.002;2022-08-04T14:41:10;32.80;71.60
5960;DHT22;3006;50.956;7.002;2022-08-04T14:43:46;32.90;71.70
5960;DHT22;3006;50.956;7.002;2022-08-04T14:46:15;33.20;71.20
5960;DHT22;3006;50.956;7.002;2022-08-04T14:49:01;33.50;70.90
5960;DHT22;3006;50.956;7.002;2022-08-04T14:51:38;33.20;70.10
5960;DHT22;3006;50.956;7.002;2022-08-04T14:54:13;33.00;70.40
5960;DHT22;3006;50.956;7.002;2022-08-04T14:56:52;33.00;69.80
5960;DHT22;3006;50.956;7.002;2022-08-04T14:59:21;32.80;69.50
5960;DHT22;3006;50.956;7.002;2022-08-04T15:01:52;32.60;69.80
5960;DHT22;3006;50.956;7.002;2022-08-04T15:04:28;32.50;70.10
5960;DHT22;3006;50.956;7.002;2022-08-04T15:06:59;32.60;69.90
5960;DHT22;3006;50.956;7.002;2022-08-04T15:09:33;32.80;69.80
5960;DHT22;3006;50.956;7.002;2022-08-04T15:12:03;32.60;69.70
5960;DHT22;3006;50.956;7.002;2022-08-04T15:14:32;32.70;69.20
5960;DHT22;3006;50.956;7.002;2022-08-04T15:17:04;32.70;69.60
5960;DHT22;3006;50.956;7.002;2022-08-04T15:19:54;32.50;69.70
5960;DHT22;3006;50.956;7.002;2022-08-04T15:22:24;32.30;69.80
5960;DHT22;3006;50.956;7.002;2022-08-04T15:24:55;32.00;69.90
5960;DHT22;3006;50.956;7.002;2022-08-04T15:27:25;31.80;69.60
5960;DHT22;3006;50.956;7.002;2022-08-04T15:29:56;31.70;69.80
5960;DHT22;3006;50.956;7.002;2022-08-04T15:32:31;31.60;70.20
5960;DHT22;3006;50.956;7.002;2022-08-04T15:35:04;31.60;70.60
5960;DHT22;3006;50.956;7.002;2022-08-04T15:37:51;31.40;70.60
5960;DHT22;3006;50.956;7.002;2022-08-04T15:40:27;31.20;70.20
5960;DHT22;3006;50.956;7.002;2022-08-04T15:43:23;31.10;70.10
5960;DHT22;3006;50.956;7.002;2022-08-04T15:45:57;31.00;70.40
5960;DHT22;3006;50.956;7.002;2022-08-04T15:48:46;30.90;70.60
5960;DHT22;3006;50.956;7.002;2022-08-04T15:51:24;30.80;71.30
5960;DHT22;3006;50.956;7.002;2022-08-04T15:54:20;30.80;71.80
5960;DHT22;3006;50.956;7.002;2022-08-04T15:57:00;30.70;72.50
5960;DHT22;3006;50.956;7.002;2022-08-04T15:59:55;30.70;72.90
5960;DHT22;3006;50.956;7.002;2022-08-04T16:02:38;30.60;73.50
5960;DHT22;3006;50.956;7.002;2022-08-04T16:05:30;30.60;74.40
5960;DHT22;3006;50.956;7.002;2022-08-04T16:08:12;30.50;75.30
5960;DHT22;3006;50.956;7.002;2022-08-04T16:10:43;30.50;75.90
5960;DHT22;3006;50.956;7.002;2022-08-04T16:13:15;30.40;76.50
5960;DHT22;3006;50.956;7.002;2022-08-04T16:15:51;30.30;76.90
5960;DHT22;3006;50.956;7.002;2022-08-04T16:18:35;30.30;77.50
5960;DHT22;3006;50.956;7.002;2022-08-04T16:21:15;30.20;77.90
5960;DHT22;3006;50.956;7.002;2022-08-04T16:23:59;30.00;78.40
5960;DHT22;3006;50.956;7.002;2022-08-04T16:26:44;29.90;78.80
5960;DHT22;3006;50.956;7.002;2022-08-04T16:29:40;29.80;79.20
5960;DHT22;3006;50.956;7.002;2022-08-04T16:32:17;29.70;79.30
5960;DHT22;3006;50.956;7.002;2022-08-04T16:34:50;29.70;79.60
5960;DHT22;3006;50.956;7.002;2022-08-04T16:37:23;29.70;79.70
5960;DHT22;3006;50.956;7.002;2022-08-04T16:40:23;29.60;79.80
5960;DHT22;3006;50.956;7.002;2022-08-04T16:43:06;29.50;80.20
5960;DHT22;3006;50.956;7.002;2022-08-04T16:45:47;29.50;80.20
5960;DHT22;3006;50.956;7.002;2022-08-04T16:48:17;29.40;80.50
5960;DHT22;3006;50.956;7.002;2022-08-04T16:51:00;29.40;80.90
5960;DHT22;3006;50.956;7.002;2022-08-04T16:53:33;29.40;80.90
5960;DHT22;3006;50.956;7.002;2022-08-04T16:56:27;29.50;80.80
5960;DHT22;3006;50.956;7.002;2022-08-04T16:59:05;29.50;80.90
5960;DHT22;3006;50.956;7.002;2022-08-04T17:01:37;29.40;80.90
5960;DHT22;3006;50.956;7.002;2022-08-04T17:04:12;29.40;81.00
5960;DHT22;3006;50.956;7.002;2022-08-04T17:06:42;29.40;80.90
5960;DHT22;3006;50.956;7.002;2022-08-04T17:09:14;29.50;80.90
5960;DHT22;3006;50.956;7.002;2022-08-04T17:11:44;29.50;80.90
5960;DHT22;3006;50.956;7.002;2022-08-04T17:14:20;29.40;80.90
5960;DHT22;3006;50.956;7.002;2022-08-04T17:16:51;29.40;80.90
5960;DHT22;3006;50.956;7.002;2022-08-04T17:19:20;29.30;80.60
5960;DHT22;3006;50.956;7.002;2022-08-04T17:21:55;29.30;80.50
5960;DHT22;3006;50.956;7.002;2022-08-04T17:24:32;29.30;81.00
5960;DHT22;3006;50.956;7.002;2022-08-04T17:27:02;29.30;81.40
5960;DHT22;3006;50.956;7.002;2022-08-04T17:29:53;29.40;81.20
5960;DHT22;3006;50.956;7.002;2022-08-04T17:32:25;29.60;80.80
5960;DHT22;3006;50.956;7.002;2022-08-04T17:34:57;29.60;80.60
5960;DHT22;3006;50.956;7.002;2022-08-04T17:37:28;29.80;80.10
5960;DHT22;3006;50.956;7.002;2022-08-04T17:40:08;29.90;80.50
5960;DHT22;3006;50.956;7.002;2022-08-04T17:42:38;29.80;80.70
5960;DHT22;3006;50.956;7.002;2022-08-04T17:45:28;29.70;81.10
5960;DHT22;3006;50.956;7.002;2022-08-04T17:48:19;29.60;81.50
5960;DHT22;3006;50.956;7.002;2022-08-04T17:50:51;29.50;81.10
5960;DHT22;3006;50.956;7.002;2022-08-04T17:53:31;29.50;81.20
5960;DHT22;3006;50.956;7.002;2022-08-04T17:56:27;29.50;81.30
5960;DHT22;3006;50.956;7.002;2022-08-04T17:59:11;29.60;81.30
5960;DHT22;3006;50.956;7.002;2022-08-04T18:02:02;29.60;81.00
5960;DHT22;3006;50.956;7.002;2022-08-04T18:04:37;29.50;81.00
5960;DHT22;3006;50.956;7.002;2022-08-04T18:07:34;29.50;81.10
5960;DHT22;3006;50.956;7.002;2022-08-04T18:10:34;29.50;81.40
5960;DHT22;3006;50.956;7.002;2022-08-04T18:13:20;29.50;81.50
5960;DHT22;3006;50.956;7.002;2022-08-04T18:15:49;29.40;81.70
5960;DHT22;3006;50.956;7.002;2022-08-04T18:18:20;29.30;82.20
5960;DHT22;3006;50.956;7.002;2022-08-04T18:20:51;29.30;82.40
5960;DHT22;3006;50.956;7.002;2022-08-04T18:23:19;29.20;82.50
5960;DHT22;3006;50.956;7.002;2022-08-04T18:25:58;29.20;82.70
5960;DHT22;3006;50.956;7.002;2022-08-04T18:28:28;29.10;82.90